Riverside Municipal Airport

About

Name: Riverside Municipal Airport
Identifier:  RAL/KRAL
Owner:  City of Riverside
Public/Private:  Public
Local Time:  26. Jan 19:46 PST
Description: Riverside Municipal Airport, is four miles southwest of downtown Riverside, the county seat of Riverside County, California.
Source: Wikipedia

Location

Riverside Municipal Airport

Runways
Identifier Length (m/ft) Surface
9/27 1,646/5,401 Asphalt
16/34 869/2,850 Asphalt

Statistics

Flights Per Day:
0 Flights
Distance: 1,000km (621mi)
Flights Delayed:
0% (0 Flights/Day Delayed)
Average Delay: 428 minutes

Current Weather

 11 C (Humidity: 81%)
  0kt (0km/h / 0mph) from 0°
  9km (6 mi.)
 Haze
 METAR KRAL 270253Z 00000KT 6SM HZ CLR 11/08 A3014 RMK AO2 SLP198 T01110078 51012 $

Claim Compensation

Claim compensation for your flight delay or cancellation
Flight delays happen, but that doesn’t mean you have to accept them. You may be entitled to as much as €600/$700 in compensation if your flight has been delayed, canceled or overbooked within the last three years.

Current Delays

Departures

N/A

Arrivals

N/A

Destinations

Map

Top Destinations

Airport Flights
per week
Seats
per week
  Albuquerque (ABQ) 0 - 0 0

Airlines & Planes

Top Airlines

Airline Flights
per day
Seats
per day
Executive Flight Services 0 -

Top Models

model Flights seats